sensor_id;sensor_type;location;lat;lon;timestamp;P1;durP1;ratioP1;P2;durP2;ratioP2
49444;SDS011;35323;43.080;-81.378;2023-05-27T00:01:05;3.00;;;1.30;;
49444;SDS011;35323;43.080;-81.378;2023-05-27T00:03:32;6.25;;;3.53;;
49444;SDS011;35323;43.080;-81.378;2023-05-27T00:06:00;3.42;;;3.13;;
49444;SDS011;35323;43.080;-81.378;2023-05-27T00:08:28;7.85;;;1.52;;
49444;SDS011;35323;43.080;-81.378;2023-05-27T00:10:56;1.02;;;0.80;;
49444;SDS011;35323;43.080;-81.378;2023-05-27T00:13:23;3.55;;;1.80;;
49444;SDS011;35323;43.080;-81.378;2023-05-27T00:15:50;2.85;;;1.63;;
49444;SDS011;35323;43.080;-81.378;2023-05-27T00:18:18;2.58;;;2.13;;
49444;SDS011;35323;43.080;-81.378;2023-05-27T00:20:46;3.67;;;0.95;;
49444;SDS011;35323;43.080;-81.378;2023-05-27T00:23:14;2.70;;;2.25;;
49444;SDS011;35323;43.080;-81.378;2023-05-27T00:25:41;3.85;;;1.50;;
49444;SDS011;35323;43.080;-81.378;2023-05-27T00:28:09;4.88;;;2.97;;
49444;SDS011;35323;43.080;-81.378;2023-05-27T00:30:37;14.95;;;3.47;;
49444;SDS011;35323;43.080;-81.378;2023-05-27T00:33:04;7.72;;;2.47;;
49444;SDS011;35323;43.080;-81.378;2023-05-27T00:35:34;11.93;;;2.13;;
49444;SDS011;35323;43.080;-81.378;2023-05-27T00:38:03;2.88;;;1.50;;
49444;SDS011;35323;43.080;-81.378;2023-05-27T00:40:31;8.68;;;2.42;;
49444;SDS011;35323;43.080;-81.378;2023-05-27T00:43:02;2.47;;;1.05;;
49444;SDS011;35323;43.080;-81.378;2023-05-27T00:45:30;4.45;;;1.92;;
49444;SDS011;35323;43.080;-81.378;2023-05-27T00:47:58;1.50;;;1.40;;
49444;SDS011;35323;43.080;-81.378;2023-05-27T00:50:29;2.78;;;1.77;;
49444;SDS011;35323;43.080;-81.378;2023-05-27T00:52:57;3.70;;;1.42;;
49444;SDS011;35323;43.080;-81.378;2023-05-27T00:55:24;4.22;;;2.22;;
49444;SDS011;35323;43.080;-81.378;2023-05-27T00:57:52;1.85;;;1.30;;
49444;SDS011;35323;43.080;-81.378;2023-05-27T01:00:24;4.85;;;3.45;;
49444;SDS011;35323;43.080;-81.378;2023-05-27T01:02:51;2.90;;;2.13;;
49444;SDS011;35323;43.080;-81.378;2023-05-27T01:05:19;2.92;;;2.33;;
49444;SDS011;35323;43.080;-81.378;2023-05-27T01:07:57;3.17;;;2.10;;
49444;SDS011;35323;43.080;-81.378;2023-05-27T01:10:40;3.95;;;2.20;;
49444;SDS011;35323;43.080;-81.378;2023-05-27T01:15:42;3.15;;;2.05;;
49444;SDS011;35323;43.080;-81.378;2023-05-27T01:18:10;5.95;;;2.42;;
49444;SDS011;35323;43.080;-81.378;2023-05-27T01:20:39;6.50;;;2.80;;
49444;SDS011;35323;43.080;-81.378;2023-05-27T01:23:08;6.47;;;2.78;;
49444;SDS011;35323;43.080;-81.378;2023-05-27T01:25:39;3.72;;;2.90;;
49444;SDS011;35323;43.080;-81.378;2023-05-27T01:28:09;2.85;;;2.22;;
49444;SDS011;35323;43.080;-81.378;2023-05-27T01:30:38;4.15;;;2.75;;
49444;SDS011;35323;43.080;-81.378;2023-05-27T01:33:09;6.85;;;3.15;;
49444;SDS011;35323;43.080;-81.378;2023-05-27T01:35:40;2.88;;;2.35;;
49444;SDS011;35323;43.080;-81.378;2023-05-27T01:38:10;3.95;;;2.05;;
49444;SDS011;35323;43.080;-81.378;2023-05-27T01:40:40;10.15;;;2.78;;
49444;SDS011;35323;43.080;-81.378;2023-05-27T01:43:08;9.32;;;3.50;;
49444;SDS011;35323;43.080;-81.378;2023-05-27T01:45:36;4.93;;;2.97;;
49444;SDS011;35323;43.080;-81.378;2023-05-27T01:48:04;7.70;;;2.67;;
49444;SDS011;35323;43.080;-81.378;2023-05-27T01:50:32;2.78;;;1.73;;
49444;SDS011;35323;43.080;-81.378;2023-05-27T01:53:00;13.35;;;3.40;;
49444;SDS011;35323;43.080;-81.378;2023-05-27T01:55:28;13.32;;;2.67;;
49444;SDS011;35323;43.080;-81.378;2023-05-27T01:57:56;5.47;;;2.45;;
49444;SDS011;35323;43.080;-81.378;2023-05-27T02:00:23;12.10;;;3.85;;
49444;SDS011;35323;43.080;-81.378;2023-05-27T02:02:51;12.95;;;4.32;;
49444;SDS011;35323;43.080;-81.378;2023-05-27T02:05:19;6.40;;;2.05;;
49444;SDS011;35323;43.080;-81.378;2023-05-27T02:07:47;2.65;;;1.58;;
49444;SDS011;35323;43.080;-81.378;2023-05-27T02:10:14;4.82;;;1.60;;
49444;SDS011;35323;43.080;-81.378;2023-05-27T02:12:42;5.78;;;1.83;;
49444;SDS011;35323;43.080;-81.378;2023-05-27T02:15:10;6.78;;;2.47;;
49444;SDS011;35323;43.080;-81.378;2023-05-27T02:17:37;9.30;;;1.90;;
49444;SDS011;35323;43.080;-81.378;2023-05-27T02:20:06;4.63;;;1.75;;
49444;SDS011;35323;43.080;-81.378;2023-05-27T02:22:33;7.05;;;2.58;;
49444;SDS011;35323;43.080;-81.378;2023-05-27T02:25:01;6.13;;;2.80;;
49444;SDS011;35323;43.080;-81.378;2023-05-27T02:27:29;3.60;;;1.65;;
49444;SDS011;35323;43.080;-81.378;2023-05-27T02:29:57;4.45;;;1.85;;
49444;SDS011;35323;43.080;-81.378;2023-05-27T02:32:24;7.70;;;3.38;;
49444;SDS011;35323;43.080;-81.378;2023-05-27T02:34:52;6.50;;;2.65;;
49444;SDS011;35323;43.080;-81.378;2023-05-27T02:37:20;2.95;;;1.50;;
49444;SDS011;35323;43.080;-81.378;2023-05-27T02:39:47;7.75;;;3.13;;
49444;SDS011;35323;43.080;-81.378;2023-05-27T02:42:15;3.88;;;3.20;;
49444;SDS011;35323;43.080;-81.378;2023-05-27T02:44:43;8.30;;;2.55;;
49444;SDS011;35323;43.080;-81.378;2023-05-27T02:47:10;6.28;;;2.55;;
49444;SDS011;35323;43.080;-81.378;2023-05-27T02:49:38;5.68;;;2.78;;
49444;SDS011;35323;43.080;-81.378;2023-05-27T02:52:06;5.63;;;2.50;;
49444;SDS011;35323;43.080;-81.378;2023-05-27T02:54:33;6.50;;;3.13;;
49444;SDS011;35323;43.080;-81.378;2023-05-27T02:57:01;2.85;;;2.20;;
49444;SDS011;35323;43.080;-81.378;2023-05-27T02:59:34;2.78;;;2.42;;
49444;SDS011;35323;43.080;-81.378;2023-05-27T03:02:01;3.33;;;3.00;;
49444;SDS011;35323;43.080;-81.378;2023-05-27T03:04:29;8.30;;;2.80;;
49444;SDS011;35323;43.080;-81.378;2023-05-27T03:06:57;3.63;;;2.67;;
49444;SDS011;35323;43.080;-81.378;2023-05-27T03:09:25;2.40;;;1.65;;
49444;SDS011;35323;43.080;-81.378;2023-05-27T03:11:52;4.65;;;1.80;;
49444;SDS011;35323;43.080;-81.378;2023-05-27T03:14:20;4.15;;;1.88;;
49444;SDS011;35323;43.080;-81.378;2023-05-27T03:16:48;3.70;;;3.40;;
49444;SDS011;35323;43.080;-81.378;2023-05-27T03:19:15;6.03;;;1.85;;
49444;SDS011;35323;43.080;-81.378;2023-05-27T03:21:43;2.63;;;2.13;;
49444;SDS011;35323;43.080;-81.378;2023-05-27T03:24:11;3.35;;;2.58;;
49444;SDS011;35323;43.080;-81.378;2023-05-27T03:26:38;5.80;;;3.65;;
49444;SDS011;35323;43.080;-81.378;2023-05-27T03:29:06;5.43;;;2.00;;
49444;SDS011;35323;43.080;-81.378;2023-05-27T03:31:37;4.13;;;1.90;;
49444;SDS011;35323;43.080;-81.378;2023-05-27T03:34:07;3.92;;;1.75;;
49444;SDS011;35323;43.080;-81.378;2023-05-27T03:36:35;4.45;;;2.13;;
49444;SDS011;35323;43.080;-81.378;2023-05-27T03:39:04;3.58;;;1.90;;
49444;SDS011;35323;43.080;-81.378;2023-05-27T03:41:33;1.90;;;1.80;;
49444;SDS011;35323;43.080;-81.378;2023-05-27T03:44:00;2.25;;;1.35;;
49444;SDS011;35323;43.080;-81.378;2023-05-27T03:46:28;3.13;;;2.10;;
49444;SDS011;35323;43.080;-81.378;2023-05-27T03:48:56;2.35;;;1.65;;
49444;SDS011;35323;43.080;-81.378;2023-05-27T03:51:24;2.13;;;1.65;;
49444;SDS011;35323;43.080;-81.378;2023-05-27T03:53:52;5.63;;;2.40;;
49444;SDS011;35323;43.080;-81.378;2023-05-27T03:56:22;4.55;;;2.35;;
49444;SDS011;35323;43.080;-81.378;2023-05-27T03:58:50;3.75;;;3.25;;
49444;SDS011;35323;43.080;-81.378;2023-05-27T04:01:18;5.05;;;3.58;;
49444;SDS011;35323;43.080;-81.378;2023-05-27T04:03:48;4.10;;;2.75;;
49444;SDS011;35323;43.080;-81.378;2023-05-27T04:06:15;5.80;;;2.38;;
49444;SDS011;35323;43.080;-81.378;2023-05-27T04:08:43;3.83;;;2.75;;
49444;SDS011;35323;43.080;-81.378;2023-05-27T04:11:11;4.70;;;2.25;;
49444;SDS011;35323;43.080;-81.378;2023-05-27T04:13:40;6.47;;;2.40;;
49444;SDS011;35323;43.080;-81.378;2023-05-27T04:16:07;3.53;;;1.83;;
49444;SDS011;35323;43.080;-81.378;2023-05-27T04:18:35;1.83;;;1.67;;
49444;SDS011;35323;43.080;-81.378;2023-05-27T04:21:02;2.35;;;2.10;;
49444;SDS011;35323;43.080;-81.378;2023-05-27T04:23:31;2.55;;;2.35;;
49444;SDS011;35323;43.080;-81.378;2023-05-27T04:25:59;3.40;;;1.75;;
49444;SDS011;35323;43.080;-81.378;2023-05-27T04:28:26;5.18;;;2.33;;
49444;SDS011;35323;43.080;-81.378;2023-05-27T04:30:54;3.38;;;2.22;;
49444;SDS011;35323;43.080;-81.378;2023-05-27T04:33:21;3.55;;;2.10;;
49444;SDS011;35323;43.080;-81.378;2023-05-27T04:35:49;4.35;;;2.90;;
49444;SDS011;35323;43.080;-81.378;2023-05-27T04:38:20;5.25;;;2.55;;
49444;SDS011;35323;43.080;-81.378;2023-05-27T04:40:49;2.30;;;2.10;;
49444;SDS011;35323;43.080;-81.378;2023-05-27T04:43:19;4.07;;;2.22;;
49444;SDS011;35323;43.080;-81.378;2023-05-27T04:45:47;2.65;;;1.55;;
49444;SDS011;35323;43.080;-81.378;2023-05-27T04:48:15;2.72;;;2.08;;
49444;SDS011;35323;43.080;-81.378;2023-05-27T04:50:42;11.02;;;1.90;;
49444;SDS011;35323;43.080;-81.378;2023-05-27T04:53:10;3.25;;;2.35;;
49444;SDS011;35323;43.080;-81.378;2023-05-27T04:55:38;3.08;;;2.75;;
49444;SDS011;35323;43.080;-81.378;2023-05-27T04:58:08;4.50;;;1.67;;
49444;SDS011;35323;43.080;-81.378;2023-05-27T05:00:36;3.28;;;1.75;;
49444;SDS011;35323;43.080;-81.378;2023-05-27T05:03:17;7.65;;;1.83;;
49444;SDS011;35323;43.080;-81.378;2023-05-27T05:05:51;2.42;;;1.63;;
49444;SDS011;35323;43.080;-81.378;2023-05-27T05:08:19;2.83;;;1.67;;
49444;SDS011;35323;43.080;-81.378;2023-05-27T05:10:47;2.92;;;1.70;;
49444;SDS011;35323;43.080;-81.378;2023-05-27T05:13:16;6.45;;;2.08;;
49444;SDS011;35323;43.080;-81.378;2023-05-27T05:15:43;3.10;;;2.42;;
49444;SDS011;35323;43.080;-81.378;2023-05-27T05:18:11;4.68;;;2.20;;
49444;SDS011;35323;43.080;-81.378;2023-05-27T05:20:39;2.63;;;1.67;;
49444;SDS011;35323;43.080;-81.378;2023-05-27T05:23:07;3.80;;;1.77;;
49444;SDS011;35323;43.080;-81.378;2023-05-27T05:25:37;2.30;;;1.60;;
49444;SDS011;35323;43.080;-81.378;2023-05-27T05:28:05;3.67;;;2.38;;
49444;SDS011;35323;43.080;-81.378;2023-05-27T05:30:32;2.88;;;1.77;;
49444;SDS011;35323;43.080;-81.378;2023-05-27T05:33:00;4.50;;;2.00;;
49444;SDS011;35323;43.080;-81.378;2023-05-27T05:35:28;4.07;;;1.85;;
49444;SDS011;35323;43.080;-81.378;2023-05-27T05:37:55;2.53;;;2.33;;
49444;SDS011;35323;43.080;-81.378;2023-05-27T05:40:23;3.28;;;2.30;;
49444;SDS011;35323;43.080;-81.378;2023-05-27T05:42:51;4.32;;;2.28;;
49444;SDS011;35323;43.080;-81.378;2023-05-27T05:45:19;3.58;;;3.10;;
49444;SDS011;35323;43.080;-81.378;2023-05-27T05:47:49;2.20;;;1.65;;
49444;SDS011;35323;43.080;-81.378;2023-05-27T05:50:17;2.83;;;2.35;;
49444;SDS011;35323;43.080;-81.378;2023-05-27T05:52:45;2.72;;;1.90;;
49444;SDS011;35323;43.080;-81.378;2023-05-27T05:55:13;5.90;;;2.53;;
49444;SDS011;35323;43.080;-81.378;2023-05-27T05:57:40;4.53;;;2.60;;
49444;SDS011;35323;43.080;-81.378;2023-05-27T06:00:08;2.20;;;2.05;;
49444;SDS011;35323;43.080;-81.378;2023-05-27T06:02:36;4.35;;;2.90;;
49444;SDS011;35323;43.080;-81.378;2023-05-27T06:05:04;3.38;;;2.15;;
49444;SDS011;35323;43.080;-81.378;2023-05-27T06:07:31;1.88;;;1.60;;
49444;SDS011;35323;43.080;-81.378;2023-05-27T06:09:59;3.50;;;1.98;;
49444;SDS011;35323;43.080;-81.378;2023-05-27T06:12:27;3.70;;;2.10;;
49444;SDS011;35323;43.080;-81.378;2023-05-27T06:14:55;4.22;;;2.78;;
49444;SDS011;35323;43.080;-81.378;2023-05-27T06:17:22;1.80;;;1.60;;
49444;SDS011;35323;43.080;-81.378;2023-05-27T06:19:50;5.63;;;2.13;;
49444;SDS011;35323;43.080;-81.378;2023-05-27T06:22:18;11.57;;;2.92;;
49444;SDS011;35323;43.080;-81.378;2023-05-27T06:24:45;9.23;;;3.55;;
49444;SDS011;35323;43.080;-81.378;2023-05-27T06:27:13;4.80;;;3.67;;
49444;SDS011;35323;43.080;-81.378;2023-05-27T06:29:40;10.82;;;3.78;;
49444;SDS011;35323;43.080;-81.378;2023-05-27T06:32:08;7.32;;;3.03;;
49444;SDS011;35323;43.080;-81.378;2023-05-27T06:34:35;4.97;;;2.85;;
49444;SDS011;35323;43.080;-81.378;2023-05-27T06:37:06;4.10;;;2.20;;
49444;SDS011;35323;43.080;-81.378;2023-05-27T06:39:33;3.80;;;3.25;;
49444;SDS011;35323;43.080;-81.378;2023-05-27T06:42:01;1.92;;;1.42;;
49444;SDS011;35323;43.080;-81.378;2023-05-27T06:44:30;3.90;;;2.65;;
49444;SDS011;35323;43.080;-81.378;2023-05-27T06:46:57;3.15;;;1.98;;
49444;SDS011;35323;43.080;-81.378;2023-05-27T06:49:25;5.88;;;2.17;;
49444;SDS011;35323;43.080;-81.378;2023-05-27T06:51:53;4.50;;;2.90;;
49444;SDS011;35323;43.080;-81.378;2023-05-27T06:54:20;4.43;;;2.88;;
49444;SDS011;35323;43.080;-81.378;2023-05-27T06:56:48;3.60;;;2.40;;
49444;SDS011;35323;43.080;-81.378;2023-05-27T06:59:15;4.90;;;3.50;;
49444;SDS011;35323;43.080;-81.378;2023-05-27T07:01:43;7.50;;;3.85;;
49444;SDS011;35323;43.080;-81.378;2023-05-27T07:04:11;5.65;;;3.30;;
49444;SDS011;35323;43.080;-81.378;2023-05-27T07:06:38;3.08;;;2.45;;
49444;SDS011;35323;43.080;-81.378;2023-05-27T07:09:06;8.77;;;3.58;;
49444;SDS011;35323;43.080;-81.378;2023-05-27T07:11:34;1.92;;;1.77;;
49444;SDS011;35323;43.080;-81.378;2023-05-27T07:14:01;2.17;;;1.83;;
49444;SDS011;35323;43.080;-81.378;2023-05-27T07:16:29;4.45;;;2.30;;
49444;SDS011;35323;43.080;-81.378;2023-05-27T07:18:57;2.67;;;2.08;;
49444;SDS011;35323;43.080;-81.378;2023-05-27T07:21:25;4.05;;;2.20;;
49444;SDS011;35323;43.080;-81.378;2023-05-27T07:23:52;5.97;;;2.92;;
49444;SDS011;35323;43.080;-81.378;2023-05-27T07:26:20;6.38;;;2.97;;
49444;SDS011;35323;43.080;-81.378;2023-05-27T07:28:48;7.25;;;2.47;;
49444;SDS011;35323;43.080;-81.378;2023-05-27T07:31:16;3.08;;;2.03;;
49444;SDS011;35323;43.080;-81.378;2023-05-27T07:33:43;4.85;;;3.30;;
49444;SDS011;35323;43.080;-81.378;2023-05-27T07:36:11;7.85;;;3.55;;
49444;SDS011;35323;43.080;-81.378;2023-05-27T07:38:39;5.63;;;4.03;;
49444;SDS011;35323;43.080;-81.378;2023-05-27T07:41:06;6.78;;;4.05;;
49444;SDS011;35323;43.080;-81.378;2023-05-27T07:43:35;4.88;;;3.42;;
49444;SDS011;35323;43.080;-81.378;2023-05-27T07:46:02;6.53;;;4.03;;
49444;SDS011;35323;43.080;-81.378;2023-05-27T07:48:30;3.53;;;2.63;;
49444;SDS011;35323;43.080;-81.378;2023-05-27T07:50:58;3.13;;;2.78;;
49444;SDS011;35323;43.080;-81.378;2023-05-27T07:53:25;6.57;;;2.70;;
49444;SDS011;35323;43.080;-81.378;2023-05-27T07:55:53;3.67;;;2.88;;
49444;SDS011;35323;43.080;-81.378;2023-05-27T07:58:20;6.95;;;3.28;;
49444;SDS011;35323;43.080;-81.378;2023-05-27T08:00:48;2.78;;;2.20;;
49444;SDS011;35323;43.080;-81.378;2023-05-27T08:03:16;3.30;;;1.95;;
49444;SDS011;35323;43.080;-81.378;2023-05-27T08:05:43;5.60;;;2.75;;
49444;SDS011;35323;43.080;-81.378;2023-05-27T08:08:11;6.38;;;3.80;;
49444;SDS011;35323;43.080;-81.378;2023-05-27T08:10:39;6.55;;;3.33;;
49444;SDS011;35323;43.080;-81.378;2023-05-27T08:13:07;5.68;;;4.22;;
49444;SDS011;35323;43.080;-81.378;2023-05-27T08:15:34;3.65;;;2.83;;
49444;SDS011;35323;43.080;-81.378;2023-05-27T08:18:02;6.13;;;3.22;;
49444;SDS011;35323;43.080;-81.378;2023-05-27T08:20:30;4.05;;;3.30;;
49444;SDS011;35323;43.080;-81.378;2023-05-27T08:22:57;3.53;;;2.45;;
49444;SDS011;35323;43.080;-81.378;2023-05-27T08:25:25;3.08;;;2.22;;
49444;SDS011;35323;43.080;-81.378;2023-05-27T08:27:53;4.57;;;3.00;;
49444;SDS011;35323;43.080;-81.378;2023-05-27T08:30:22;5.35;;;2.50;;
49444;SDS011;35323;43.080;-81.378;2023-05-27T08:32:50;5.57;;;3.28;;
49444;SDS011;35323;43.080;-81.378;2023-05-27T08:35:18;8.80;;;3.80;;
49444;SDS011;35323;43.080;-81.378;2023-05-27T08:37:46;5.45;;;3.10;;
49444;SDS011;35323;43.080;-81.378;2023-05-27T08:40:14;6.30;;;3.72;;
49444;SDS011;35323;43.080;-81.378;2023-05-27T08:42:42;9.57;;;5.93;;
49444;SDS011;35323;43.080;-81.378;2023-05-27T08:45:11;4.13;;;3.63;;
49444;SDS011;35323;43.080;-81.378;2023-05-27T08:47:39;4.90;;;3.15;;
49444;SDS011;35323;43.080;-81.378;2023-05-27T08:50:07;5.45;;;3.67;;
49444;SDS011;35323;43.080;-81.378;2023-05-27T08:52:38;6.05;;;2.92;;
49444;SDS011;35323;43.080;-81.378;2023-05-27T08:55:05;4.25;;;2.95;;
49444;SDS011;35323;43.080;-81.378;2023-05-27T08:57:33;4.63;;;4.18;;
49444;SDS011;35323;43.080;-81.378;2023-05-27T09:00:03;4.13;;;3.20;;
49444;SDS011;35323;43.080;-81.378;2023-05-27T09:02:38;2.85;;;2.10;;
49444;SDS011;35323;43.080;-81.378;2023-05-27T09:05:09;7.13;;;3.20;;
49444;SDS011;35323;43.080;-81.378;2023-05-27T09:07:38;7.07;;;3.83;;
49444;SDS011;35323;43.080;-81.378;2023-05-27T09:10:05;5.00;;;3.50;;
49444;SDS011;35323;43.080;-81.378;2023-05-27T09:12:34;6.05;;;3.85;;
49444;SDS011;35323;43.080;-81.378;2023-05-27T09:15:03;3.75;;;2.92;;
49444;SDS011;35323;43.080;-81.378;2023-05-27T09:17:31;6.35;;;4.28;;
49444;SDS011;35323;43.080;-81.378;2023-05-27T09:19:58;3.22;;;2.90;;
49444;SDS011;35323;43.080;-81.378;2023-05-27T09:22:28;4.32;;;3.55;;
49444;SDS011;35323;43.080;-81.378;2023-05-27T09:24:56;4.22;;;3.08;;
49444;SDS011;35323;43.080;-81.378;2023-05-27T09:27:25;6.20;;;3.33;;
49444;SDS011;35323;43.080;-81.378;2023-05-27T09:29:55;7.90;;;3.28;;
49444;SDS011;35323;43.080;-81.378;2023-05-27T09:32:24;4.28;;;2.47;;
49444;SDS011;35323;43.080;-81.378;2023-05-27T09:34:51;2.85;;;2.33;;
49444;SDS011;35323;43.080;-81.378;2023-05-27T09:37:19;3.42;;;3.00;;
49444;SDS011;35323;43.080;-81.378;2023-05-27T09:39:53;7.25;;;3.03;;
49444;SDS011;35323;43.080;-81.378;2023-05-27T09:42:21;5.93;;;4.35;;
49444;SDS011;35323;43.080;-81.378;2023-05-27T09:44:49;6.60;;;2.38;;
49444;SDS011;35323;43.080;-81.378;2023-05-27T09:47:17;3.50;;;2.90;;
49444;SDS011;35323;43.080;-81.378;2023-05-27T09:49:47;3.97;;;2.70;;
49444;SDS011;35323;43.080;-81.378;2023-05-27T09:52:18;4.57;;;3.30;;
49444;SDS011;35323;43.080;-81.378;2023-05-27T09:54:48;6.97;;;3.42;;
49444;SDS011;35323;43.080;-81.378;2023-05-27T09:57:16;4.60;;;2.47;;
49444;SDS011;35323;43.080;-81.378;2023-05-27T09:59:45;9.05;;;3.60;;
49444;SDS011;35323;43.080;-81.378;2023-05-27T10:02:14;4.95;;;3.42;;
49444;SDS011;35323;43.080;-81.378;2023-05-27T10:04:44;5.00;;;2.90;;
49444;SDS011;35323;43.080;-81.378;2023-05-27T10:07:12;7.20;;;4.25;;
49444;SDS011;35323;43.080;-81.378;2023-05-27T10:09:47;6.55;;;3.40;;
49444;SDS011;35323;43.080;-81.378;2023-05-27T10:12:15;6.00;;;3.17;;
49444;SDS011;35323;43.080;-81.378;2023-05-27T10:14:43;8.13;;;3.05;;
49444;SDS011;35323;43.080;-81.378;2023-05-27T10:17:13;4.32;;;3.78;;
49444;SDS011;35323;43.080;-81.378;2023-05-27T10:19:53;7.50;;;2.92;;
49444;SDS011;35323;43.080;-81.378;2023-05-27T10:22:23;4.63;;;3.08;;
49444;SDS011;35323;43.080;-81.378;2023-05-27T10:24:50;8.38;;;3.97;;
49444;SDS011;35323;43.080;-81.378;2023-05-27T10:27:21;7.60;;;4.30;;
49444;SDS011;35323;43.080;-81.378;2023-05-27T10:29:56;4.25;;;2.95;;
49444;SDS011;35323;43.080;-81.378;2023-05-27T10:32:24;6.35;;;3.70;;
49444;SDS011;35323;43.080;-81.378;2023-05-27T10:34:52;9.43;;;4.30;;
49444;SDS011;35323;43.080;-81.378;2023-05-27T10:37:22;4.63;;;4.20;;
49444;SDS011;35323;43.080;-81.378;2023-05-27T10:39:54;5.22;;;3.50;;
49444;SDS011;35323;43.080;-81.378;2023-05-27T10:42:23;5.68;;;3.42;;
49444;SDS011;35323;43.080;-81.378;2023-05-27T10:45:02;4.90;;;2.70;;
49444;SDS011;35323;43.080;-81.378;2023-05-27T10:47:33;4.25;;;3.63;;
49444;SDS011;35323;43.080;-81.378;2023-05-27T10:50:11;7.90;;;3.72;;
49444;SDS011;35323;43.080;-81.378;2023-05-27T10:52:40;11.32;;;3.65;;
49444;SDS011;35323;43.080;-81.378;2023-05-27T10:55:09;2.97;;;2.47;;
49444;SDS011;35323;43.080;-81.378;2023-05-27T10:57:37;6.13;;;3.65;;
49444;SDS011;35323;43.080;-81.378;2023-05-27T11:00:04;6.70;;;3.45;;
49444;SDS011;35323;43.080;-81.378;2023-05-27T11:02:38;5.22;;;3.10;;
49444;SDS011;35323;43.080;-81.378;2023-05-27T11:05:13;8.25;;;3.00;;
49444;SDS011;35323;43.080;-81.378;2023-05-27T11:07:41;5.63;;;3.20;;
49444;SDS011;35323;43.080;-81.378;2023-05-27T11:10:09;3.58;;;2.60;;
49444;SDS011;35323;43.080;-81.378;2023-05-27T11:12:37;8.32;;;3.72;;
49444;SDS011;35323;43.080;-81.378;2023-05-27T11:15:05;7.40;;;3.22;;
49444;SDS011;35323;43.080;-81.378;2023-05-27T11:17:33;5.32;;;3.17;;
49444;SDS011;35323;43.080;-81.378;2023-05-27T11:20:01;6.13;;;3.08;;
49444;SDS011;35323;43.080;-81.378;2023-05-27T11:25:04;6.55;;;3.67;;
49444;SDS011;35323;43.080;-81.378;2023-05-27T11:27:38;6.05;;;3.13;;
49444;SDS011;35323;43.080;-81.378;2023-05-27T11:30:09;10.85;;;3.85;;
49444;SDS011;35323;43.080;-81.378;2023-05-27T11:32:42;5.80;;;3.47;;
49444;SDS011;35323;43.080;-81.378;2023-05-27T11:35:17;7.30;;;4.60;;
49444;SDS011;35323;43.080;-81.378;2023-05-27T11:37:51;5.22;;;3.22;;
49444;SDS011;35323;43.080;-81.378;2023-05-27T11:40:20;17.90;;;4.07;;
49444;SDS011;35323;43.080;-81.378;2023-05-27T11:42:48;5.05;;;3.97;;
49444;SDS011;35323;43.080;-81.378;2023-05-27T11:45:17;5.60;;;4.30;;
49444;SDS011;35323;43.080;-81.378;2023-05-27T11:47:45;6.85;;;3.88;;
49444;SDS011;35323;43.080;-81.378;2023-05-27T11:50:18;9.38;;;4.03;;
49444;SDS011;35323;43.080;-81.378;2023-05-27T11:52:50;12.48;;;4.57;;
49444;SDS011;35323;43.080;-81.378;2023-05-27T11:55:18;10.07;;;4.45;;
49444;SDS011;35323;43.080;-81.378;2023-05-27T11:57:46;7.65;;;4.00;;
49444;SDS011;35323;43.080;-81.378;2023-05-27T12:00:14;5.45;;;4.10;;
49444;SDS011;35323;43.080;-81.378;2023-05-27T12:02:43;7.78;;;3.78;;
49444;SDS011;35323;43.080;-81.378;2023-05-27T12:05:10;8.18;;;3.47;;
49444;SDS011;35323;43.080;-81.378;2023-05-27T12:07:58;13.85;;;5.05;;
49444;SDS011;35323;43.080;-81.378;2023-05-27T12:10:25;5.53;;;3.40;;
49444;SDS011;35323;43.080;-81.378;2023-05-27T12:13:05;6.03;;;4.55;;
49444;SDS011;35323;43.080;-81.378;2023-05-27T12:15:33;5.88;;;3.35;;
49444;SDS011;35323;43.080;-81.378;2023-05-27T12:18:01;6.07;;;4.47;;
49444;SDS011;35323;43.080;-81.378;2023-05-27T12:20:28;8.40;;;3.80;;
49444;SDS011;35323;43.080;-81.378;2023-05-27T12:22:56;10.57;;;4.53;;
49444;SDS011;35323;43.080;-81.378;2023-05-27T12:25:24;9.02;;;5.13;;
49444;SDS011;35323;43.080;-81.378;2023-05-27T12:27:52;11.15;;;5.28;;
49444;SDS011;35323;43.080;-81.378;2023-05-27T12:30:20;9.57;;;5.43;;
49444;SDS011;35323;43.080;-81.378;2023-05-27T12:32:47;8.07;;;4.88;;
49444;SDS011;35323;43.080;-81.378;2023-05-27T12:35:15;10.05;;;6.50;;
49444;SDS011;35323;43.080;-81.378;2023-05-27T12:37:42;9.38;;;3.30;;
49444;SDS011;35323;43.080;-81.378;2023-05-27T12:40:10;6.13;;;4.78;;
49444;SDS011;35323;43.080;-81.378;2023-05-27T12:42:41;34.97;;;4.78;;
49444;SDS011;35323;43.080;-81.378;2023-05-27T12:45:09;13.02;;;4.88;;
49444;SDS011;35323;43.080;-81.378;2023-05-27T12:47:37;12.15;;;5.32;;
49444;SDS011;35323;43.080;-81.378;2023-05-27T12:50:06;11.13;;;5.65;;
49444;SDS011;35323;43.080;-81.378;2023-05-27T12:52:34;9.60;;;4.95;;
49444;SDS011;35323;43.080;-81.378;2023-05-27T12:55:02;10.30;;;5.45;;
49444;SDS011;35323;43.080;-81.378;2023-05-27T12:57:30;9.95;;;4.72;;
49444;SDS011;35323;43.080;-81.378;2023-05-27T12:59:58;21.13;;;5.82;;
49444;SDS011;35323;43.080;-81.378;2023-05-27T13:02:25;14.95;;;5.78;;
49444;SDS011;35323;43.080;-81.378;2023-05-27T13:04:55;10.20;;;5.57;;
49444;SDS011;35323;43.080;-81.378;2023-05-27T13:07:24;6.80;;;4.82;;
49444;SDS011;35323;43.080;-81.378;2023-05-27T13:09:51;5.15;;;3.45;;
49444;SDS011;35323;43.080;-81.378;2023-05-27T13:12:19;10.57;;;4.20;;
49444;SDS011;35323;43.080;-81.378;2023-05-27T13:14:46;5.85;;;4.00;;
49444;SDS011;35323;43.080;-81.378;2023-05-27T13:17:14;7.22;;;4.32;;
49444;SDS011;35323;43.080;-81.378;2023-05-27T13:19:42;7.93;;;4.47;;
49444;SDS011;35323;43.080;-81.378;2023-05-27T13:22:10;11.80;;;3.90;;
49444;SDS011;35323;43.080;-81.378;2023-05-27T13:24:38;6.47;;;3.80;;
49444;SDS011;35323;43.080;-81.378;2023-05-27T13:27:05;8.48;;;4.18;;
49444;SDS011;35323;43.080;-81.378;2023-05-27T13:29:34;13.27;;;5.20;;
49444;SDS011;35323;43.080;-81.378;2023-05-27T13:32:02;16.20;;;5.28;;
49444;SDS011;35323;43.080;-81.378;2023-05-27T13:34:30;7.15;;;5.80;;
49444;SDS011;35323;43.080;-81.378;2023-05-27T13:36:58;12.60;;;4.40;;
49444;SDS011;35323;43.080;-81.378;2023-05-27T13:39:25;6.70;;;3.58;;
49444;SDS011;35323;43.080;-81.378;2023-05-27T13:41:53;5.65;;;4.28;;
49444;SDS011;35323;43.080;-81.378;2023-05-27T13:44:20;16.92;;;4.97;;
49444;SDS011;35323;43.080;-81.378;2023-05-27T13:46:49;7.43;;;3.95;;
49444;SDS011;35323;43.080;-81.378;2023-05-27T13:49:17;10.35;;;4.10;;
49444;SDS011;35323;43.080;-81.378;2023-05-27T13:51:46;12.60;;;3.80;;
49444;SDS011;35323;43.080;-81.378;2023-05-27T13:54:13;3.13;;;2.38;;
49444;SDS011;35323;43.080;-81.378;2023-05-27T13:56:41;9.20;;;3.03;;
49444;SDS011;35323;43.080;-81.378;2023-05-27T13:59:09;4.72;;;2.70;;
49444;SDS011;35323;43.080;-81.378;2023-05-27T14:01:37;9.98;;;3.70;;
49444;SDS011;35323;43.080;-81.378;2023-05-27T14:04:04;3.85;;;3.28;;
49444;SDS011;35323;43.080;-81.378;2023-05-27T14:06:32;6.82;;;3.45;;
49444;SDS011;35323;43.080;-81.378;2023-05-27T14:09:00;7.50;;;3.83;;
49444;SDS011;35323;43.080;-81.378;2023-05-27T14:11:28;4.40;;;2.45;;
49444;SDS011;35323;43.080;-81.378;2023-05-27T14:13:57;8.82;;;2.63;;
49444;SDS011;35323;43.080;-81.378;2023-05-27T14:16:26;3.83;;;2.65;;
49444;SDS011;35323;43.080;-81.378;2023-05-27T14:18:54;15.88;;;4.05;;
49444;SDS011;35323;43.080;-81.378;2023-05-27T14:21:21;5.90;;;3.65;;
49444;SDS011;35323;43.080;-81.378;2023-05-27T14:23:49;8.27;;;3.30;;
49444;SDS011;35323;43.080;-81.378;2023-05-27T14:26:17;4.75;;;2.45;;
49444;SDS011;35323;43.080;-81.378;2023-05-27T14:28:45;4.18;;;2.63;;
49444;SDS011;35323;43.080;-81.378;2023-05-27T14:31:12;3.50;;;2.53;;
49444;SDS011;35323;43.080;-81.378;2023-05-27T14:33:40;4.38;;;2.70;;